createdAt,value
2023-03-15T00:03:43.942Z,5.45
2023-03-15T00:08:52.462Z,5.47
2023-03-15T00:13:55.200Z,4.72
2023-03-15T00:18:57.757Z,3.97
2023-03-15T00:24:00.385Z,4.13
2023-03-15T00:29:03.560Z,3.00
2023-03-15T00:34:06.148Z,2.90
2023-03-15T00:39:08.824Z,3.40
2023-03-15T00:44:11.418Z,3.30
2023-03-15T00:49:14.024Z,3.27
2023-03-15T00:54:20.216Z,2.60
2023-03-15T00:59:23.466Z,3.03
2023-03-15T01:04:26.100Z,3.00
2023-03-15T01:09:31.001Z,2.70
2023-03-15T01:14:36.151Z,2.15
2023-03-15T01:19:41.209Z,3.40
2023-03-15T01:24:43.944Z,2.70
2023-03-15T01:29:47.528Z,2.70
2023-03-15T01:34:51.238Z,3.33
2023-03-15T01:39:54.119Z,3.33
2023-03-15T01:45:01.774Z,2.60
2023-03-15T01:50:09.215Z,2.83
2023-03-15T01:55:17.277Z,2.83
2023-03-15T02:00:32.487Z,3.55
2023-03-15T02:05:49.860Z,2.83
2023-03-15T02:11:05.031Z,2.50
2023-03-15T02:16:08.239Z,2.58
2023-03-15T02:21:44.945Z,2.70
2023-03-15T02:31:52.785Z,4.18
2023-03-15T02:41:59.254Z,3.00
2023-03-15T02:47:17.027Z,2.70
2023-03-15T02:52:21.192Z,2.63
2023-03-15T02:57:23.690Z,2.33
2023-03-15T03:02:26.888Z,2.97
2023-03-15T03:07:29.596Z,2.40
2023-03-15T03:12:39.330Z,3.10
2023-03-15T03:17:41.953Z,2.67
2023-03-15T03:22:45.089Z,2.60
2023-03-15T03:27:49.328Z,2.72
2023-03-15T03:32:52.175Z,2.38
2023-03-15T03:37:56.879Z,2.30
2023-03-15T03:43:06.717Z,2.55
2023-03-15T03:48:11.324Z,2.75
2023-03-15T03:53:14.488Z,2.33
2023-03-15T03:58:17.500Z,2.38
2023-03-15T04:03:28.789Z,2.38
2023-03-15T04:08:41.318Z,2.90
2023-03-15T04:13:46.668Z,2.38
2023-03-15T04:18:49.457Z,2.27
2023-03-15T04:23:54.149Z,3.00
2023-03-15T04:29:21.924Z,2.88
2023-03-15T04:34:51.523Z,2.75
2023-03-15T04:40:20.487Z,2.95
2023-03-15T04:45:43.422Z,3.47
2023-03-15T04:50:58.250Z,2.60
2023-03-15T04:56:23.465Z,2.67
2023-03-15T05:01:47.050Z,3.17
2023-03-15T05:06:55.377Z,3.38
2023-03-15T05:12:00.769Z,3.40
2023-03-15T05:17:22.682Z,3.20
2023-03-15T05:22:50.286Z,3.42
2023-03-15T05:28:08.054Z,3.50
2023-03-15T05:33:34.919Z,4.60
2023-03-15T05:38:57.879Z,4.18
2023-03-15T05:44:21.425Z,3.83
2023-03-15T05:49:42.497Z,3.47
2023-03-15T05:55:15.004Z,5.78
2023-03-15T06:00:36.064Z,4.20
2023-03-15T06:05:46.850Z,9.48
2023-03-15T06:10:56.928Z,4.88
2023-03-15T06:16:02.174Z,3.53
2023-03-15T06:21:07.122Z,4.45
2023-03-15T06:26:09.821Z,4.90
2023-03-15T06:31:16.139Z,3.80
2023-03-15T06:36:32.733Z,3.28
2023-03-15T06:41:35.528Z,4.43
2023-03-15T06:46:46.236Z,5.07
2023-03-15T06:51:49.477Z,5.50
2023-03-15T06:56:55.292Z,4.60
2023-03-15T07:01:57.889Z,3.73
2023-03-15T07:07:01.379Z,2.90
2023-03-15T07:12:04.296Z,3.08
2023-03-15T07:17:06.949Z,3.70
2023-03-15T07:22:09.901Z,3.40
2023-03-15T07:27:15.402Z,4.00
2023-03-15T07:32:19.123Z,3.28
2023-03-15T07:37:21.781Z,4.13
2023-03-15T07:42:27.011Z,5.43
2023-03-15T07:47:33.662Z,5.03
2023-03-15T07:52:37.217Z,6.70
2023-03-15T07:57:41.713Z,3.00
2023-03-15T08:02:44.758Z,2.80
2023-03-15T08:07:49.854Z,3.00
2023-03-15T08:12:53.008Z,3.00
2023-03-15T08:18:00.057Z,3.30
2023-03-15T08:23:03.006Z,3.17
2023-03-15T08:28:06.091Z,2.45
2023-03-15T08:33:09.210Z,2.35
2023-03-15T08:38:11.940Z,3.17
2023-03-15T08:43:15.969Z,2.70
2023-03-15T08:48:21.627Z,3.10
2023-03-15T08:53:24.163Z,3.08
2023-03-15T08:58:26.863Z,2.47
2023-03-15T09:03:29.460Z,2.33
2023-03-15T09:08:33.574Z,3.47
2023-03-15T09:13:36.596Z,2.58
2023-03-15T09:18:41.581Z,3.20
2023-03-15T09:23:44.298Z,4.03
2023-03-15T09:28:49.540Z,3.10
2023-03-15T09:33:52.233Z,2.85
2023-03-15T09:38:54.833Z,3.60
2023-03-15T09:44:00.671Z,2.90
2023-03-15T09:49:33.200Z,3.42
2023-03-15T09:55:24.754Z,3.30
2023-03-15T10:00:31.538Z,4.32
2023-03-15T10:05:56.358Z,4.47
2023-03-15T10:11:48.295Z,5.57
2023-03-15T10:16:52.233Z,4.70
2023-03-15T10:22:01.177Z,3.25
2023-03-15T10:27:37.843Z,3.10
2023-03-15T10:32:43.440Z,4.47
2023-03-15T10:37:50.338Z,10.30
2023-03-15T10:42:54.291Z,7.20
2023-03-15T10:48:00.649Z,8.00
2023-03-15T10:53:12.077Z,4.32
2023-03-15T10:58:36.546Z,7.25
2023-03-15T11:03:39.303Z,3.28
2023-03-15T11:08:42.227Z,5.83
2023-03-15T11:13:59.996Z,4.10
2023-03-15T11:19:04.106Z,13.18
2023-03-15T11:24:07.869Z,18.70
2023-03-15T11:29:22.129Z,26.73
2023-03-15T11:34:31.762Z,25.77
2023-03-15T11:39:40.927Z,15.20
2023-03-15T11:44:52.656Z,9.98
2023-03-15T11:49:56.879Z,11.68
2023-03-15T11:55:01.679Z,6.97
2023-03-15T12:00:21.978Z,14.75
2023-03-15T12:05:52.055Z,9.70
2023-03-15T12:10:54.657Z,15.07
2023-03-15T12:16:00.282Z,7.80
2023-03-15T12:21:11.334Z,7.18
2023-03-15T12:26:47.627Z,10.90
2023-03-15T12:31:52.852Z,6.95
2023-03-15T12:37:15.749Z,11.30
2023-03-15T12:42:41.680Z,9.43
2023-03-15T12:47:51.063Z,12.52
2023-03-15T12:52:59.740Z,10.88
2023-03-15T12:58:04.967Z,38.15
2023-03-15T13:03:22.272Z,26.33
2023-03-15T13:08:30.014Z,11.35
2023-03-15T13:14:00.515Z,7.85
2023-03-15T13:19:30.340Z,13.50
2023-03-15T13:24:57.982Z,11.57
2023-03-15T13:30:26.626Z,8.85
2023-03-15T13:35:29.313Z,11.55
2023-03-15T13:40:32.680Z,11.80
2023-03-15T13:45:38.154Z,9.52
2023-03-15T13:50:41.108Z,12.07
2023-03-15T13:55:49.850Z,12.80
2023-03-15T14:01:01.237Z,13.48
2023-03-15T14:06:06.207Z,20.42
2023-03-15T14:11:19.176Z,29.63
2023-03-15T14:17:03.497Z,24.33
2023-03-15T14:22:18.286Z,5.90
2023-03-15T14:27:28.136Z,6.82
2023-03-15T14:32:31.947Z,10.70
2023-03-15T14:37:40.819Z,8.20
2023-03-15T14:42:52.634Z,4.30
2023-03-15T14:47:58.876Z,6.20
2023-03-15T14:53:02.372Z,12.10
2023-03-15T14:58:12.046Z,13.27
2023-03-15T15:03:17.877Z,13.52
2023-03-15T15:08:24.713Z,16.67
2023-03-15T15:13:29.585Z,14.90
2023-03-15T15:18:33.958Z,11.55
2023-03-15T15:23:54.846Z,12.82
2023-03-15T15:29:01.096Z,15.15
2023-03-15T15:34:03.813Z,13.02
2023-03-15T15:39:16.835Z,12.17
2023-03-15T15:44:22.412Z,16.40
2023-03-15T15:49:27.031Z,14.18
2023-03-15T15:54:35.758Z,17.30
2023-03-15T15:59:38.784Z,9.73
2023-03-15T16:04:42.507Z,38.97
2023-03-15T16:14:48.301Z,177.85
2023-03-15T16:19:51.812Z,314.02
2023-03-15T16:29:59.631Z,36.13
2023-03-15T16:35:05.131Z,57.78
2023-03-15T16:40:26.293Z,66.70
2023-03-15T16:45:28.953Z,57.58
2023-03-15T16:50:32.937Z,56.13
2023-03-15T16:55:35.815Z,42.50
2023-03-15T17:00:38.908Z,31.88
2023-03-15T17:05:46.195Z,22.45
2023-03-15T17:10:49.483Z,18.80
2023-03-15T17:15:52.128Z,17.95
2023-03-15T17:20:54.854Z,27.00
2023-03-15T17:25:57.800Z,19.33
2023-03-15T17:31:20.200Z,39.70
2023-03-15T17:36:25.662Z,29.65
2023-03-15T17:41:30.920Z,23.75
2023-03-15T17:46:33.627Z,48.95
2023-03-15T17:51:37.595Z,55.05
2023-03-15T17:56:41.015Z,43.33
2023-03-15T18:01:45.871Z,45.07
2023-03-15T18:06:50.393Z,60.65
2023-03-15T18:11:55.633Z,58.67
2023-03-15T18:17:00.422Z,57.83
2023-03-15T18:22:03.300Z,59.17
2023-03-15T18:27:06.186Z,79.97
2023-03-15T18:32:10.276Z,134.23
2023-03-15T18:37:13.431Z,121.85
2023-03-15T18:47:19.527Z,62.15
2023-03-15T18:52:23.061Z,60.78
2023-03-15T18:57:26.054Z,57.65
2023-03-15T19:02:29.115Z,35.00
2023-03-15T19:07:32.473Z,42.88
2023-03-15T19:12:36.829Z,30.40
2023-03-15T19:17:40.680Z,57.08
2023-03-15T19:22:45.189Z,77.53
2023-03-15T19:27:49.252Z,75.82
2023-03-15T19:32:52.254Z,66.38
2023-03-15T19:37:56.697Z,48.13
2023-03-15T19:42:59.375Z,55.17
2023-03-15T19:48:05.565Z,55.20
2023-03-15T19:53:08.757Z,58.40
2023-03-15T19:58:11.464Z,53.22
2023-03-15T20:03:14.374Z,85.43
2023-03-15T20:08:17.526Z,80.73
2023-03-15T20:13:20.062Z,75.40
2023-03-15T20:18:23.351Z,66.82
2023-03-15T20:23:26.270Z,56.65
2023-03-15T20:28:28.876Z,54.57
2023-03-15T20:33:31.465Z,81.93
2023-03-15T20:38:34.825Z,86.70
2023-03-15T20:43:37.724Z,84.63
2023-03-15T20:48:41.843Z,65.77
2023-03-15T20:53:44.493Z,65.78
2023-03-15T20:58:50.525Z,74.45
2023-03-15T21:03:56.346Z,57.53
2023-03-15T21:09:01.910Z,36.85
2023-03-15T21:14:04.398Z,25.67
2023-03-15T21:19:07.204Z,23.48
2023-03-15T21:24:10.755Z,16.90
2023-03-15T21:34:17.004Z,16.95
2023-03-15T21:39:19.600Z,17.85
2023-03-15T21:44:22.868Z,19.15
2023-03-15T21:49:25.804Z,18.02
2023-03-15T21:54:29.491Z,13.87
2023-03-15T21:59:32.294Z,14.35
2023-03-15T22:04:35.004Z,10.20
2023-03-15T22:09:38.806Z,14.10
2023-03-15T22:14:42.265Z,13.73
2023-03-15T22:19:44.894Z,17.20
2023-03-15T22:24:47.600Z,17.38
2023-03-15T22:29:52.390Z,13.90
2023-03-15T22:34:54.849Z,11.20
2023-03-15T22:39:57.369Z,11.82
2023-03-15T22:45:00.594Z,10.63
2023-03-15T22:50:03.708Z,12.55
2023-03-15T22:55:09.170Z,10.35
2023-03-15T23:00:14.138Z,9.00
2023-03-15T23:05:19.873Z,10.63
2023-03-15T23:10:22.525Z,7.77
2023-03-15T23:15:27.587Z,11.23
2023-03-15T23:20:30.273Z,44.90
2023-03-15T23:25:36.201Z,29.50
2023-03-15T23:30:40.034Z,31.63
2023-03-15T23:35:42.716Z,26.20
2023-03-15T23:40:45.402Z,18.83
2023-03-15T23:45:48.014Z,11.18
2023-03-15T23:50:54.920Z,13.15
2023-03-15T23:55:57.648Z,11.45
